Terminal Aerodrome Forecast
Issued by NWS Wilmington, OH

Current Version | Previous Version | Graphics & Text | Print | Product List | Glossary On
Versions: 1 2 3 4 5 6 7 8 9 10 11 12 13 14
223
FTUS41 KILN 230526
TAFCMH
TAF
KCMH 230526Z 2306/2406 03005KT P6SM SKC
     FM231900 03006KT P6SM BKN050
     FM240000 VRB03KT P6SM SKC=

USA.gov is the U.S. government's official web portal to all federal, state and local government web resources and services.